KOP weather

Nakhon Phanom Airport
Nakhon Phanom Province, Thailand

Public forecast

Using degrees Celsius for public forecast. Weather courtesy of forecast.io.

METAR (pilot weather report)

Report is more than 6 hours old.

Retrieved 2019/07/23 13:00 UTC (7 hours ago):

VTUW 231300Z 16004KT 9000 FEW035 SCT060 BKN100 26/24 Q1005 NOSIG

TAF (pilot weather forecast)

Retrieved 2019/07/23 18:00 UTC (2 hours ago):

TAF VTUW 231700Z 2318/2418 20006KT 9999 SCT020 BKN080 TEMPO 2319/2401 VRB10G20KT 5000 TSRA FEW018CB BKN020 BKN100 TEMPO 2408/2414 VRB10G20KT 5000 TSRA FEW018CB BKN020 BKN100